AFR705 DIAP-LFPG
Flight info
| Callsign | AFR705 |
|---|---|
| Flight time | N/A |
| Altitude | 40000 |
| Route | AD UG851 BKO UM122 EREMO UR977 BULIS DCT MABAP UR722 SAK UG5 KORIS L27 VJF DCT SVL DCT HIJ DCT RUSEM DCT SOTUK DCT USOKO DCT TLD DCT SIE DCT EDIGO DCT DGO L176 LUSEM DCT LULUT DCT POI/N0503F300 DCT PEPAX UT182 KEPER |
| Aircraft | A359/H-SDE2E3GHIJ3J4J5LM1ORWXY/LB1D1 |
Departure
| Time | 2026-05-08 02:35 |
|---|---|
| Airport | Félix-Houphouët-Boigny International Airport (DIAP) |
Arrival
| Time | N/A |
|---|---|
| Airport | Charles de Gaulle International Airport (LFPG) |
| Time | Latitude | Longitude | Altitude | Speed | Heading |
|---|---|---|---|---|---|
| 2026-05-08 01:29 | 5.25374 | -3.93185 | 61 ft | 0 kts | 322° |
| 2026-05-08 02:10 | 5.25365 | -3.93179 | 33 ft | 4 kts | 322° |
| 2026-05-08 02:10 | 5.25344 | -3.93162 | 32 ft | 4 kts | 322° |
| 2026-05-08 02:10 | 5.25324 | -3.93146 | 31 ft | 4 kts | 322° |
| 2026-05-08 02:11 | 5.25304 | -3.93131 | 31 ft | 2 kts | 322° |
| 2026-05-08 02:11 | 5.25285 | -3.93119 | 46 ft | 4 kts | 359° |
| 2026-05-08 02:11 | 5.25262 | -3.93128 | 17 ft | 4 kts | 35° |
| 2026-05-08 02:11 | 5.25248 | -3.93136 | 28 ft | 1 kts | 23° |
| 2026-05-08 02:12 | 5.25246 | -3.93137 | 32 ft | 0 kts | 23° |
| 2026-05-08 02:16 | 5.25269 | -3.93127 | 11 ft | 8 kts | 23° |
| 2026-05-08 02:16 | 5.25332 | -3.93101 | 53 ft | 11 kts | 23° |
| 2026-05-08 02:17 | 5.25411 | -3.93070 | 33 ft | 13 kts | 21° |
| 2026-05-08 02:17 | 5.25503 | -3.93032 | 33 ft | 15 kts | 22° |
| 2026-05-08 02:17 | 5.25608 | -3.92987 | 34 ft | 17 kts | 22° |
| 2026-05-08 02:17 | 5.25726 | -3.92938 | 34 ft | 19 kts | 22° |
| 2026-05-08 02:18 | 5.25854 | -3.92886 | 34 ft | 21 kts | 22° |
| 2026-05-08 02:18 | 5.25993 | -3.92828 | 34 ft | 22 kts | 23° |
| 2026-05-08 02:18 | 5.26143 | -3.92765 | 34 ft | 24 kts | 22° |
| 2026-05-08 02:18 | 5.26306 | -3.92700 | 33 ft | 26 kts | 22° |
| 2026-05-08 02:19 | 5.26388 | -3.92666 | 33 ft | 27 kts | 22° |
| 2026-05-08 02:19 | 5.26453 | -3.92640 | 33 ft | 27 kts | 22° |
| 2026-05-08 02:19 | 5.26615 | -3.92573 | 33 ft | 23 kts | 23° |
| 2026-05-08 02:19 | 5.26740 | -3.92521 | 33 ft | 20 kts | 22° |
| 2026-05-08 02:20 | 5.26872 | -3.92467 | 33 ft | 22 kts | 22° |
| 2026-05-08 02:20 | 5.27016 | -3.92408 | 33 ft | 24 kts | 22° |
| 2026-05-08 02:20 | 5.27109 | -3.92371 | 33 ft | 0 kts | 22° |
| 2026-05-08 02:21 | 5.27134 | -3.92360 | 33 ft | 7 kts | 25° |
| 2026-05-08 02:21 | 5.27165 | -3.92319 | 33 ft | 8 kts | 78° |
| 2026-05-08 02:21 | 5.27154 | -3.92254 | 33 ft | 11 kts | 109° |
| 2026-05-08 02:22 | 5.27139 | -3.92180 | 33 ft | 10 kts | 64° |
| 2026-05-08 02:22 | 5.27202 | -3.92141 | 33 ft | 12 kts | 23° |
| 2026-05-08 02:22 | 5.27284 | -3.92109 | 32 ft | 13 kts | 8° |
| 2026-05-08 02:22 | 5.27320 | -3.92118 | 32 ft | 1 kts | 334° |
| 2026-05-08 02:33 | 5.27358 | -3.92116 | 32 ft | 9 kts | 27° |
| 2026-05-08 02:33 | 5.27362 | -3.92083 | 31 ft | 2 kts | 132° |
| 2026-05-08 02:34 | 5.27356 | -3.92082 | 31 ft | 1 kts | 165° |
| 2026-05-08 02:34 | 5.27351 | -3.92085 | 31 ft | 2 kts | 192° |
| 2026-05-08 02:34 | 5.27313 | -3.92097 | 31 ft | 5 kts | 200° |
| 2026-05-08 02:34 | 5.27299 | -3.92102 | 31 ft | 15 kts | 200° |
| 2026-05-08 02:35 | 5.26960 | -3.92241 | 34 ft | 88 kts | 202° |
| 2026-05-08 02:35 | 5.26189 | -3.92560 | 32 ft | 149 kts | 202° |
| 2026-05-08 02:35 | 5.25187 | -3.92982 | 630 ft | 149 kts | 204° |
| 2026-05-08 02:35 | 5.24239 | -3.93400 | 1232 ft | 153 kts | 207° |
| 2026-05-08 02:36 | 5.23238 | -3.93860 | 1706 ft | 165 kts | 207° |
| 2026-05-08 02:36 | 5.22170 | -3.94367 | 2137 ft | 180 kts | 207° |
| 2026-05-08 02:36 | 5.20970 | -3.94952 | 2451 ft | 203 kts | 211° |
| 2026-05-08 02:36 | 5.19851 | -3.95897 | 2911 ft | 216 kts | 229° |
| 2026-05-08 02:37 | 5.18988 | -3.97191 | 3321 ft | 235 kts | 246° |
| 2026-05-08 02:37 | 5.18788 | -3.98852 | 3676 ft | 253 kts | 282° |
| 2026-05-08 02:37 | 5.19483 | -4.00235 | 4189 ft | 260 kts | 312° |
| 2026-05-08 02:37 | 5.20451 | -4.01080 | 4696 ft | 263 kts | 327° |
| 2026-05-08 02:38 | 5.21605 | -4.01739 | 5195 ft | 265 kts | 336° |
| 2026-05-08 02:38 | 5.22806 | -4.02266 | 5688 ft | 270 kts | 340° |
| 2026-05-08 02:38 | 5.24039 | -4.02743 | 6161 ft | 274 kts | 341° |
| 2026-05-08 02:38 | 5.25332 | -4.03227 | 6662 ft | 278 kts | 342° |
| 2026-05-08 02:39 | 5.26638 | -4.03733 | 7166 ft | 282 kts | 341° |
| 2026-05-08 02:39 | 5.27937 | -4.04267 | 7688 ft | 286 kts | 340° |
| 2026-05-08 02:39 | 5.29185 | -4.04809 | 8176 ft | 290 kts | 340° |
| 2026-05-08 02:39 | 5.30542 | -4.05425 | 8714 ft | 295 kts | 340° |
| 2026-05-08 02:40 | 5.31883 | -4.06055 | 9236 ft | 299 kts | 340° |
| 2026-05-08 02:40 | 5.33283 | -4.06727 | 9777 ft | 305 kts | 340° |
| 2026-05-08 02:40 | 5.34768 | -4.07447 | 10227 ft | 313 kts | 339° |
| 2026-05-08 02:40 | 5.36267 | -4.08175 | 10513 ft | 327 kts | 339° |
| 2026-05-08 02:41 | 5.37794 | -4.08917 | 10785 ft | 339 kts | 339° |
| 2026-05-08 02:41 | 5.39407 | -4.09701 | 11063 ft | 351 kts | 338° |
| 2026-05-08 02:41 | 5.41035 | -4.10492 | 11335 ft | 362 kts | 338° |
| 2026-05-08 02:41 | 5.42724 | -4.11314 | 11614 ft | 372 kts | 338° |
| 2026-05-08 02:42 | 5.44497 | -4.12178 | 11968 ft | 378 kts | 338° |
| 2026-05-08 02:42 | 5.46294 | -4.13053 | 12390 ft | 383 kts | 338° |
| 2026-05-08 02:42 | 5.47798 | -4.13786 | 12754 ft | 386 kts | 337° |
| 2026-05-08 02:42 | 5.49297 | -4.14516 | 13127 ft | 388 kts | 337° |
| 2026-05-08 02:43 | 5.50810 | -4.15252 | 13507 ft | 391 kts | 337° |
| 2026-05-08 02:43 | 5.52327 | -4.15991 | 13854 ft | 393 kts | 337° |
| 2026-05-08 02:43 | 5.53832 | -4.16722 | 14176 ft | 395 kts | 337° |
| 2026-05-08 02:43 | 5.55326 | -4.17448 | 14502 ft | 396 kts | 337° |
| 2026-05-08 02:44 | 5.56931 | -4.18228 | 14858 ft | 398 kts | 336° |
| 2026-05-08 02:44 | 5.58526 | -4.19002 | 15206 ft | 399 kts | 336° |
| 2026-05-08 02:44 | 5.60140 | -4.19786 | 15551 ft | 400 kts | 336° |
| 2026-05-08 02:44 | 5.61798 | -4.20590 | 15921 ft | 402 kts | 336° |
| 2026-05-08 02:45 | 5.63257 | -4.21298 | 16230 ft | 403 kts | 336° |
| 2026-05-08 02:45 | 5.64309 | -4.21809 | 16472 ft | 404 kts | 336° |
| 2026-05-08 02:45 | 5.66463 | -4.22854 | 16957 ft | 406 kts | 336° |
| 2026-05-08 02:45 | 5.68008 | -4.23604 | 17274 ft | 407 kts | 336° |
| 2026-05-08 02:46 | 5.69106 | -4.24137 | 17527 ft | 408 kts | 336° |
| 2026-05-08 02:46 | 5.70725 | -4.24923 | 17869 ft | 409 kts | 336° |
| 2026-05-08 02:46 | 5.72422 | -4.25746 | 18215 ft | 411 kts | 336° |
| 2026-05-08 02:46 | 5.74034 | -4.26528 | 18498 ft | 413 kts | 336° |
| 2026-05-08 02:47 | 5.75672 | -4.27323 | 18768 ft | 415 kts | 336° |
| 2026-05-08 02:47 | 5.77277 | -4.28102 | 19022 ft | 418 kts | 336° |
| 2026-05-08 02:47 | 5.78843 | -4.28862 | 19257 ft | 420 kts | 336° |
| 2026-05-08 02:47 | 5.80380 | -4.29608 | 19501 ft | 422 kts | 336° |
| 2026-05-08 02:48 | 5.82002 | -4.30395 | 19779 ft | 424 kts | 336° |
| 2026-05-08 02:48 | 5.83631 | -4.31186 | 20039 ft | 426 kts | 336° |
| 2026-05-08 02:48 | 5.85265 | -4.31979 | 20304 ft | 428 kts | 336° |
| 2026-05-08 02:48 | 5.86997 | -4.32820 | 20579 ft | 431 kts | 336° |
| 2026-05-08 02:49 | 5.88768 | -4.33681 | 20855 ft | 433 kts | 336° |
| 2026-05-08 02:49 | 5.90553 | -4.34547 | 21136 ft | 435 kts | 336° |
| 2026-05-08 02:49 | 5.92228 | -4.35361 | 21424 ft | 437 kts | 336° |
| 2026-05-08 02:49 | 5.93909 | -4.36177 | 21696 ft | 439 kts | 336° |
| 2026-05-08 02:50 | 5.95713 | -4.37054 | 21974 ft | 442 kts | 336° |
| 2026-05-08 02:50 | 5.97522 | -4.37933 | 22242 ft | 444 kts | 336° |
| 2026-05-08 02:50 | 5.99367 | -4.38829 | 22521 ft | 446 kts | 335° |
| 2026-05-08 02:50 | 6.01237 | -4.39738 | 22803 ft | 449 kts | 335° |
| 2026-05-08 02:51 | 6.02932 | -4.40561 | 23057 ft | 451 kts | 335° |
| 2026-05-08 02:51 | 6.05018 | -4.41575 | 23356 ft | 453 kts | 335° |
| 2026-05-08 02:51 | 6.07848 | -4.42951 | 23704 ft | 457 kts | 335° |
| 2026-05-08 02:51 | 6.10727 | -4.44350 | 24069 ft | 460 kts | 335° |
| 2026-05-08 02:52 | 6.13622 | -4.45757 | 24425 ft | 462 kts | 335° |
| 2026-05-08 02:52 | 6.16516 | -4.47164 | 24818 ft | 464 kts | 335° |
| 2026-05-08 02:52 | 6.19433 | -4.48583 | 25230 ft | 467 kts | 335° |
| 2026-05-08 02:52 | 6.22360 | -4.50006 | 25663 ft | 469 kts | 335° |
| 2026-05-08 02:53 | 6.25317 | -4.51444 | 26092 ft | 472 kts | 335° |
| 2026-05-08 02:53 | 6.28287 | -4.52888 | 26541 ft | 475 kts | 335° |
| 2026-05-08 02:53 | 6.31264 | -4.54337 | 26999 ft | 477 kts | 335° |
| 2026-05-08 02:53 | 6.34254 | -4.55792 | 27429 ft | 480 kts | 335° |
| 2026-05-08 02:54 | 6.37274 | -4.57261 | 27889 ft | 483 kts | 335° |
| 2026-05-08 02:54 | 6.40308 | -4.58737 | 28247 ft | 488 kts | 335° |
| 2026-05-08 02:54 | 6.43354 | -4.60219 | 28633 ft | 491 kts | 335° |
| 2026-05-08 02:54 | 6.46448 | -4.61726 | 29087 ft | 494 kts | 335° |
| 2026-05-08 02:55 | 6.49535 | -4.63229 | 29530 ft | 496 kts | 335° |
| 2026-05-08 02:55 | 6.55770 | -4.66265 | 30261 ft | 501 kts | 335° |
| 2026-05-08 02:55 | 6.58924 | -4.67801 | 30595 ft | 503 kts | 335° |
| 2026-05-08 02:56 | 6.62074 | -4.69336 | 30937 ft | 505 kts | 335° |
| 2026-05-08 02:56 | 6.65236 | -4.70877 | 31262 ft | 507 kts | 335° |
| 2026-05-08 02:56 | 6.68420 | -4.72429 | 31565 ft | 509 kts | 335° |
| 2026-05-08 02:56 | 6.71620 | -4.73988 | 31877 ft | 511 kts | 335° |
| 2026-05-08 02:57 | 6.74809 | -4.75542 | 32177 ft | 512 kts | 335° |
| 2026-05-08 02:57 | 6.77974 | -4.77085 | 32471 ft | 514 kts | 335° |
| 2026-05-08 02:57 | 6.81178 | -4.78647 | 32891 ft | 512 kts | 335° |
| 2026-05-08 02:57 | 6.84378 | -4.80208 | 33397 ft | 508 kts | 335° |
| 2026-05-08 02:58 | 6.87551 | -4.81756 | 33942 ft | 504 kts | 335° |
| 2026-05-08 02:58 | 6.90694 | -4.83289 | 34293 ft | 502 kts | 335° |
| 2026-05-08 02:58 | 6.93821 | -4.84815 | 34576 ft | 502 kts | 335° |
| 2026-05-08 02:58 | 6.96971 | -4.86352 | 34863 ft | 502 kts | 335° |
| 2026-05-08 02:59 | 7.00126 | -4.87891 | 35177 ft | 502 kts | 335° |
| 2026-05-08 02:59 | 7.03256 | -4.89419 | 35488 ft | 501 kts | 335° |
| 2026-05-08 02:59 | 7.06385 | -4.90946 | 35793 ft | 500 kts | 335° |
| 2026-05-08 02:59 | 7.09525 | -4.92479 | 36073 ft | 500 kts | 335° |
| 2026-05-08 03:00 | 7.12639 | -4.94000 | 36347 ft | 499 kts | 335° |
| 2026-05-08 03:00 | 7.15763 | -4.95526 | 36651 ft | 498 kts | 335° |
| 2026-05-08 03:00 | 7.18869 | -4.97044 | 37056 ft | 495 kts | 335° |
| 2026-05-08 03:00 | 7.21963 | -4.98555 | 37383 ft | 493 kts | 335° |
| 2026-05-08 03:01 | 7.25016 | -5.00047 | 37653 ft | 492 kts | 335° |
| 2026-05-08 03:01 | 7.28107 | -5.01557 | 37919 ft | 492 kts | 335° |
| 2026-05-08 03:01 | 7.31183 | -5.03060 | 38180 ft | 491 kts | 335° |
| 2026-05-08 03:01 | 7.34252 | -5.04560 | 38447 ft | 490 kts | 335° |
| 2026-05-08 03:02 | 7.37329 | -5.06064 | 38670 ft | 490 kts | 335° |
| 2026-05-08 03:02 | 7.40378 | -5.07555 | 38841 ft | 490 kts | 335° |
| 2026-05-08 03:02 | 7.43446 | -5.09056 | 39006 ft | 490 kts | 335° |
| 2026-05-08 03:02 | 7.46513 | -5.10556 | 39182 ft | 490 kts | 335° |
| 2026-05-08 03:03 | 7.49565 | -5.12049 | 39348 ft | 489 kts | 335° |
| 2026-05-08 03:03 | 7.52629 | -5.13548 | 39510 ft | 489 kts | 335° |
| 2026-05-08 03:03 | 7.55676 | -5.15039 | 39682 ft | 489 kts | 335° |
| 2026-05-08 03:03 | 7.58736 | -5.16537 | 39849 ft | 488 kts | 335° |
| 2026-05-08 03:04 | 7.61794 | -5.18033 | 39906 ft | 488 kts | 335° |
| 2026-05-08 03:04 | 7.67895 | -5.21021 | 39905 ft | 487 kts | 335° |
| 2026-05-08 03:05 | 7.73980 | -5.24001 | 39902 ft | 487 kts | 335° |
| 2026-05-08 03:05 | 7.80083 | -5.26991 | 39904 ft | 487 kts | 335° |
| 2026-05-08 03:06 | 7.86159 | -5.29969 | 39903 ft | 487 kts | 335° |
| 2026-05-08 03:06 | 7.92253 | -5.32957 | 39903 ft | 487 kts | 335° |
| 2026-05-08 03:07 | 7.98326 | -5.35935 | 39898 ft | 486 kts | 335° |
| 2026-05-08 03:07 | 8.04379 | -5.38904 | 39895 ft | 486 kts | 335° |
| 2026-05-08 03:08 | 8.10510 | -5.41913 | 39898 ft | 486 kts | 335° |
| 2026-05-08 03:08 | 8.16562 | -5.44884 | 39896 ft | 486 kts | 335° |
| 2026-05-08 03:09 | 8.22644 | -5.47871 | 39897 ft | 486 kts | 335° |
| 2026-05-08 03:09 | 8.28770 | -5.50880 | 39898 ft | 486 kts | 335° |
| 2026-05-08 03:10 | 8.34857 | -5.53871 | 39898 ft | 486 kts | 335° |
| 2026-05-08 03:10 | 8.40931 | -5.56857 | 39897 ft | 485 kts | 335° |
| 2026-05-08 03:11 | 8.46999 | -5.59841 | 39896 ft | 485 kts | 335° |
| 2026-05-08 03:11 | 8.53040 | -5.62813 | 39899 ft | 485 kts | 335° |
| 2026-05-08 03:12 | 8.59072 | -5.65781 | 39898 ft | 485 kts | 334° |
| 2026-05-08 03:12 | 8.65178 | -5.68787 | 39895 ft | 485 kts | 334° |
| 2026-05-08 03:13 | 8.71209 | -5.71757 | 39896 ft | 484 kts | 334° |
| 2026-05-08 03:13 | 8.77276 | -5.74746 | 39895 ft | 484 kts | 334° |
| 2026-05-08 03:14 | 8.83366 | -5.77747 | 39898 ft | 483 kts | 334° |
| 2026-05-08 03:14 | 8.89356 | -5.80700 | 39898 ft | 484 kts | 334° |
| 2026-05-08 03:15 | 8.95388 | -5.83675 | 39898 ft | 484 kts | 334° |
| 2026-05-08 03:15 | 9.01442 | -5.86662 | 39898 ft | 484 kts | 334° |
| 2026-05-08 03:16 | 9.07492 | -5.89647 | 39893 ft | 483 kts | 334° |
| 2026-05-08 03:16 | 9.13532 | -5.92630 | 39895 ft | 482 kts | 334° |
| 2026-05-08 03:17 | 9.19521 | -5.95588 | 39890 ft | 481 kts | 334° |
| 2026-05-08 03:17 | 9.25541 | -5.98562 | 39892 ft | 481 kts | 334° |
| 2026-05-08 03:18 | 9.31552 | -6.01533 | 39891 ft | 481 kts | 334° |
| 2026-05-08 03:18 | 9.37575 | -6.04512 | 39890 ft | 482 kts | 334° |
| 2026-05-08 03:19 | 9.42560 | -6.06977 | 39891 ft | 481 kts | 333° |
| 2026-05-08 03:19 | 9.48566 | -6.09949 | 39890 ft | 479 kts | 334° |
| 2026-05-08 03:20 | 9.54533 | -6.13081 | 39892 ft | 480 kts | 329° |
| 2026-05-08 03:20 | 9.60255 | -6.16569 | 39893 ft | 480 kts | 328° |
| 2026-05-08 03:21 | 9.65948 | -6.20061 | 39888 ft | 480 kts | 329° |
| 2026-05-08 03:21 | 9.71695 | -6.23505 | 39886 ft | 480 kts | 329° |
| 2026-05-08 03:22 | 9.77457 | -6.26921 | 39888 ft | 480 kts | 329° |
| 2026-05-08 03:22 | 9.83223 | -6.30335 | 39888 ft | 477 kts | 329° |
| 2026-05-08 03:23 | 9.88930 | -6.33718 | 39889 ft | 475 kts | 329° |
| 2026-05-08 03:23 | 9.94638 | -6.37106 | 39881 ft | 475 kts | 329° |
| 2026-05-08 03:24 | 10.00339 | -6.40492 | 39887 ft | 475 kts | 329° |
| 2026-05-08 03:24 | 10.06043 | -6.43880 | 39886 ft | 475 kts | 329° |
| 2026-05-08 03:25 | 10.11745 | -6.47268 | 39885 ft | 475 kts | 329° |
| 2026-05-08 03:25 | 10.17450 | -6.50659 | 39881 ft | 475 kts | 328° |
| 2026-05-08 03:26 | 10.23137 | -6.54042 | 39878 ft | 472 kts | 328° |
| 2026-05-08 03:26 | 10.28781 | -6.57401 | 39878 ft | 472 kts | 328° |
| 2026-05-08 03:27 | 10.34447 | -6.60774 | 39878 ft | 472 kts | 328° |
| 2026-05-08 03:27 | 10.40121 | -6.64153 | 39876 ft | 472 kts | 328° |
| 2026-05-08 03:28 | 10.45765 | -6.67516 | 39877 ft | 472 kts | 328° |
| 2026-05-08 03:28 | 10.51428 | -6.70890 | 39874 ft | 472 kts | 328° |
| 2026-05-08 03:29 | 10.57090 | -6.74265 | 39877 ft | 471 kts | 328° |
| 2026-05-08 03:29 | 10.62746 | -6.77640 | 39876 ft | 471 kts | 328° |
| 2026-05-08 03:30 | 10.71237 | -6.82709 | 39873 ft | 471 kts | 327° |
| 2026-05-08 03:31 | 10.82548 | -6.89465 | 39876 ft | 471 kts | 327° |
| 2026-05-08 03:32 | 10.90993 | -6.94508 | 39875 ft | 471 kts | 327° |
| 2026-05-08 03:32 | 10.96625 | -6.97874 | 39875 ft | 471 kts | 327° |
| 2026-05-08 03:33 | 11.02279 | -7.01254 | 39878 ft | 471 kts | 327° |
| 2026-05-08 03:33 | 11.07924 | -7.04630 | 39878 ft | 471 kts | 327° |
| 2026-05-08 03:34 | 11.13576 | -7.08012 | 39878 ft | 471 kts | 327° |
| 2026-05-08 03:34 | 11.19238 | -7.11402 | 39878 ft | 471 kts | 327° |
| 2026-05-08 03:35 | 11.24869 | -7.14774 | 39879 ft | 471 kts | 327° |
| 2026-05-08 03:35 | 11.30509 | -7.18154 | 39878 ft | 470 kts | 327° |
| 2026-05-08 03:36 | 11.36151 | -7.21537 | 39877 ft | 470 kts | 327° |
| 2026-05-08 03:36 | 11.41796 | -7.24923 | 39879 ft | 471 kts | 327° |
| 2026-05-08 03:37 | 11.47454 | -7.28318 | 39880 ft | 471 kts | 327° |
| 2026-05-08 03:37 | 11.53117 | -7.31718 | 39876 ft | 471 kts | 327° |
| 2026-05-08 03:38 | 11.58761 | -7.35108 | 39880 ft | 471 kts | 327° |
| 2026-05-08 03:38 | 11.64400 | -7.38496 | 39876 ft | 471 kts | 327° |
| 2026-05-08 03:39 | 11.70043 | -7.41889 | 39875 ft | 471 kts | 327° |
| 2026-05-08 03:39 | 11.75687 | -7.45284 | 39874 ft | 471 kts | 327° |
| 2026-05-08 03:40 | 11.81329 | -7.48679 | 39877 ft | 471 kts | 327° |
| 2026-05-08 03:40 | 11.86965 | -7.52072 | 39874 ft | 471 kts | 327° |
| 2026-05-08 03:41 | 11.92619 | -7.55478 | 39876 ft | 471 kts | 327° |
| 2026-05-08 03:41 | 11.98254 | -7.58874 | 39873 ft | 471 kts | 326° |
| 2026-05-08 03:42 | 12.03862 | -7.62256 | 39879 ft | 472 kts | 326° |
| 2026-05-08 03:42 | 12.09568 | -7.65698 | 39877 ft | 473 kts | 326° |
| 2026-05-08 03:43 | 12.15208 | -7.69102 | 39873 ft | 473 kts | 326° |
| 2026-05-08 03:43 | 12.20923 | -7.72552 | 39877 ft | 473 kts | 326° |
| 2026-05-08 03:44 | 12.26554 | -7.75954 | 39875 ft | 473 kts | 326° |
| 2026-05-08 03:44 | 12.32228 | -7.79383 | 39870 ft | 473 kts | 326° |
| 2026-05-08 03:45 | 12.37885 | -7.82804 | 39861 ft | 472 kts | 326° |
| 2026-05-08 03:45 | 12.43549 | -7.86232 | 39858 ft | 472 kts | 326° |
| 2026-05-08 03:46 | 12.49232 | -7.89673 | 39857 ft | 472 kts | 326° |
| 2026-05-08 03:46 | 12.55165 | -7.92460 | 39856 ft | 479 kts | 340° |
| 2026-05-08 03:47 | 12.61773 | -7.93549 | 39852 ft | 485 kts | 351° |
| 2026-05-08 03:47 | 12.68486 | -7.94060 | 39870 ft | 487 kts | 352° |
| 2026-05-08 03:48 | 12.75238 | -7.94511 | 39866 ft | 487 kts | 352° |
| 2026-05-08 03:48 | 12.82004 | -7.94991 | 39872 ft | 487 kts | 352° |
| 2026-05-08 03:49 | 12.88768 | -7.95490 | 39868 ft | 487 kts | 352° |
| 2026-05-08 03:49 | 12.95540 | -7.95994 | 39864 ft | 487 kts | 352° |
| 2026-05-08 03:50 | 13.02263 | -7.96494 | 39866 ft | 487 kts | 351° |
| 2026-05-08 03:50 | 13.09024 | -7.96996 | 39862 ft | 488 kts | 351° |
| 2026-05-08 03:51 | 13.15777 | -7.97498 | 39862 ft | 488 kts | 351° |
| 2026-05-08 03:51 | 13.22553 | -7.98001 | 39862 ft | 488 kts | 351° |
| 2026-05-08 03:52 | 13.28212 | -7.98422 | 39856 ft | 488 kts | 351° |
| 2026-05-08 03:52 | 13.34953 | -7.98924 | 39856 ft | 488 kts | 351° |
| 2026-05-08 03:53 | 13.41774 | -7.99432 | 39862 ft | 488 kts | 351° |
| 2026-05-08 03:53 | 13.48509 | -7.99934 | 39860 ft | 488 kts | 351° |
| 2026-05-08 03:54 | 13.55302 | -8.00441 | 39855 ft | 488 kts | 351° |
| 2026-05-08 03:54 | 13.62070 | -8.00945 | 39857 ft | 489 kts | 351° |
| 2026-05-08 03:55 | 13.68853 | -8.01451 | 39858 ft | 489 kts | 351° |
| 2026-05-08 03:55 | 13.75637 | -8.01957 | 39860 ft | 488 kts | 351° |
| 2026-05-08 03:56 | 13.82406 | -8.02462 | 39855 ft | 488 kts | 351° |
| 2026-05-08 03:56 | 13.89184 | -8.02969 | 39854 ft | 488 kts | 351° |
| 2026-05-08 03:57 | 13.95959 | -8.03476 | 39847 ft | 488 kts | 351° |
| 2026-05-08 03:57 | 14.02739 | -8.03984 | 39848 ft | 488 kts | 351° |
| 2026-05-08 03:58 | 14.09498 | -8.04489 | 39844 ft | 488 kts | 350° |
| 2026-05-08 03:58 | 14.16254 | -8.04996 | 39837 ft | 488 kts | 350° |
| 2026-05-08 03:59 | 14.23038 | -8.05505 | 39831 ft | 488 kts | 350° |
| 2026-05-08 03:59 | 14.29809 | -8.06013 | 39831 ft | 488 kts | 350° |
| 2026-05-08 04:00 | 14.36575 | -8.06521 | 39829 ft | 488 kts | 350° |
| 2026-05-08 04:00 | 14.43309 | -8.07027 | 39831 ft | 488 kts | 350° |
| 2026-05-08 04:01 | 14.50080 | -8.07535 | 39831 ft | 488 kts | 350° |
| 2026-05-08 04:01 | 14.56859 | -8.08045 | 39823 ft | 488 kts | 350° |
| 2026-05-08 04:02 | 14.63629 | -8.08555 | 39823 ft | 488 kts | 350° |
| 2026-05-08 04:02 | 14.70394 | -8.09065 | 39824 ft | 488 kts | 350° |
| 2026-05-08 04:03 | 14.77132 | -8.09568 | 39823 ft | 488 kts | 350° |
| 2026-05-08 04:03 | 14.87288 | -8.10326 | 39824 ft | 488 kts | 350° |
| 2026-05-08 04:04 | 14.94065 | -8.10833 | 39823 ft | 488 kts | 350° |
| 2026-05-08 04:04 | 15.00823 | -8.11340 | 39824 ft | 488 kts | 350° |
| 2026-05-08 04:05 | 15.07594 | -8.11848 | 39826 ft | 488 kts | 350° |
| 2026-05-08 04:05 | 15.14381 | -8.12357 | 39839 ft | 488 kts | 350° |
| 2026-05-08 04:06 | 15.21149 | -8.12865 | 39824 ft | 488 kts | 350° |
| 2026-05-08 04:06 | 15.27926 | -8.13375 | 39831 ft | 488 kts | 350° |
| 2026-05-08 04:07 | 15.34708 | -8.13884 | 39827 ft | 488 kts | 350° |
| 2026-05-08 04:07 | 15.41487 | -8.14394 | 39827 ft | 488 kts | 350° |
| 2026-05-08 04:08 | 15.48258 | -8.14904 | 39832 ft | 488 kts | 350° |
| 2026-05-08 04:08 | 15.55043 | -8.15415 | 39832 ft | 489 kts | 349° |
| 2026-05-08 04:09 | 15.61833 | -8.15927 | 39832 ft | 489 kts | 349° |
| 2026-05-08 04:09 | 15.68625 | -8.16439 | 39831 ft | 489 kts | 349° |
| 2026-05-08 04:10 | 15.75474 | -8.16956 | 39832 ft | 489 kts | 349° |
| 2026-05-08 04:10 | 15.82221 | -8.17467 | 39832 ft | 489 kts | 349° |
| 2026-05-08 04:11 | 15.89021 | -8.17984 | 39829 ft | 491 kts | 349° |
| 2026-05-08 04:11 | 15.95841 | -8.18503 | 39828 ft | 492 kts | 349° |
| 2026-05-08 04:12 | 16.02667 | -8.19021 | 39829 ft | 492 kts | 349° |
| 2026-05-08 04:12 | 16.09489 | -8.19539 | 39825 ft | 492 kts | 349° |
| 2026-05-08 04:13 | 16.16321 | -8.20059 | 39832 ft | 492 kts | 349° |
| 2026-05-08 04:13 | 16.23159 | -8.20580 | 39831 ft | 492 kts | 349° |
| 2026-05-08 04:14 | 16.30003 | -8.21097 | 39825 ft | 493 kts | 349° |
| 2026-05-08 04:14 | 16.36855 | -8.21619 | 39823 ft | 493 kts | 349° |
| 2026-05-08 04:15 | 16.43703 | -8.22141 | 39824 ft | 493 kts | 349° |
| 2026-05-08 04:15 | 16.50546 | -8.22663 | 39823 ft | 493 kts | 349° |
| 2026-05-08 04:16 | 16.57394 | -8.23185 | 39827 ft | 494 kts | 349° |
| 2026-05-08 04:16 | 16.64257 | -8.23708 | 39827 ft | 494 kts | 349° |
| 2026-05-08 04:17 | 16.71113 | -8.24231 | 39826 ft | 494 kts | 349° |
| 2026-05-08 04:17 | 16.77980 | -8.24755 | 39827 ft | 494 kts | 349° |
| 2026-05-08 04:18 | 16.84849 | -8.25280 | 39829 ft | 494 kts | 349° |
| 2026-05-08 04:18 | 16.91712 | -8.25804 | 39829 ft | 494 kts | 349° |
| 2026-05-08 04:19 | 16.98576 | -8.26331 | 39830 ft | 495 kts | 348° |
| 2026-05-08 04:19 | 17.05450 | -8.26858 | 39827 ft | 495 kts | 349° |
| 2026-05-08 04:20 | 17.12320 | -8.27383 | 39830 ft | 495 kts | 349° |
| 2026-05-08 04:20 | 17.19187 | -8.27909 | 39829 ft | 495 kts | 349° |
| 2026-05-08 04:21 | 17.26045 | -8.28435 | 39833 ft | 495 kts | 348° |
| 2026-05-08 04:21 | 17.32933 | -8.28965 | 39833 ft | 495 kts | 348° |
| 2026-05-08 04:22 | 17.39798 | -8.29492 | 39830 ft | 495 kts | 348° |
| 2026-05-08 04:22 | 17.46683 | -8.30022 | 39833 ft | 495 kts | 348° |
| 2026-05-08 04:23 | 17.53570 | -8.30552 | 39836 ft | 495 kts | 348° |
| 2026-05-08 04:23 | 17.60440 | -8.31082 | 39837 ft | 495 kts | 348° |
| 2026-05-08 04:24 | 17.66169 | -8.31524 | 39835 ft | 496 kts | 348° |
| 2026-05-08 04:24 | 17.73060 | -8.32056 | 39840 ft | 496 kts | 348° |
| 2026-05-08 04:25 | 17.79954 | -8.32588 | 39837 ft | 496 kts | 348° |
| 2026-05-08 04:25 | 17.86852 | -8.33121 | 39840 ft | 496 kts | 348° |
| 2026-05-08 04:26 | 17.93749 | -8.33654 | 39841 ft | 496 kts | 348° |
| 2026-05-08 04:26 | 18.00637 | -8.34186 | 39842 ft | 496 kts | 348° |
| 2026-05-08 04:27 | 18.07533 | -8.34720 | 39845 ft | 496 kts | 348° |
| 2026-05-08 04:27 | 18.14421 | -8.35254 | 39842 ft | 496 kts | 348° |
| 2026-05-08 04:28 | 18.21316 | -8.35789 | 39844 ft | 496 kts | 348° |
| 2026-05-08 04:28 | 18.28214 | -8.36325 | 39843 ft | 497 kts | 348° |
| 2026-05-08 04:29 | 18.35129 | -8.36864 | 39846 ft | 498 kts | 348° |
| 2026-05-08 04:29 | 18.42045 | -8.37401 | 39848 ft | 498 kts | 348° |
| 2026-05-08 04:30 | 18.48959 | -8.37938 | 39849 ft | 498 kts | 348° |
| 2026-05-08 04:30 | 18.55882 | -8.38477 | 39854 ft | 498 kts | 348° |
| 2026-05-08 04:31 | 18.62794 | -8.39016 | 39860 ft | 499 kts | 348° |
| 2026-05-08 04:31 | 18.69720 | -8.39557 | 39855 ft | 499 kts | 348° |
| 2026-05-08 04:32 | 18.76665 | -8.40099 | 39855 ft | 499 kts | 348° |
| 2026-05-08 04:32 | 18.83602 | -8.40641 | 39848 ft | 499 kts | 348° |
| 2026-05-08 04:33 | 18.90541 | -8.41183 | 39854 ft | 500 kts | 348° |
| 2026-05-08 04:33 | 18.97472 | -8.41725 | 39864 ft | 500 kts | 348° |
| 2026-05-08 04:34 | 19.04422 | -8.42270 | 39860 ft | 500 kts | 348° |
| 2026-05-08 04:34 | 19.11351 | -8.42813 | 39860 ft | 500 kts | 348° |
| 2026-05-08 04:35 | 19.18289 | -8.43357 | 39855 ft | 500 kts | 348° |
| 2026-05-08 04:35 | 19.25230 | -8.43902 | 39856 ft | 499 kts | 348° |
| 2026-05-08 04:36 | 19.32125 | -8.44444 | 39855 ft | 500 kts | 347° |
| 2026-05-08 04:36 | 19.39065 | -8.44991 | 39859 ft | 500 kts | 347° |
| 2026-05-08 04:37 | 19.46013 | -8.45538 | 39862 ft | 500 kts | 347° |
| 2026-05-08 04:37 | 19.52985 | -8.46092 | 39863 ft | 500 kts | 347° |
| 2026-05-08 04:38 | 19.59884 | -8.46634 | 39859 ft | 500 kts | 347° |
| 2026-05-08 04:38 | 19.66827 | -8.47179 | 39864 ft | 500 kts | 347° |
| 2026-05-08 04:39 | 19.73809 | -8.47730 | 39862 ft | 500 kts | 347° |
| 2026-05-08 04:39 | 19.80716 | -8.48276 | 39864 ft | 500 kts | 347° |
| 2026-05-08 04:40 | 19.87665 | -8.48826 | 39862 ft | 500 kts | 347° |
| 2026-05-08 04:40 | 19.94599 | -8.49376 | 39880 ft | 500 kts | 346° |
| 2026-05-08 04:41 | 20.01530 | -8.49927 | 39864 ft | 501 kts | 346° |
| 2026-05-08 04:41 | 20.08502 | -8.50486 | 39862 ft | 502 kts | 346° |
| 2026-05-08 04:42 | 20.15448 | -8.51034 | 39865 ft | 501 kts | 346° |
| 2026-05-08 04:42 | 20.22395 | -8.51584 | 39864 ft | 501 kts | 346° |
| 2026-05-08 04:43 | 20.29354 | -8.52138 | 39870 ft | 502 kts | 346° |
| 2026-05-08 04:43 | 20.36328 | -8.52695 | 39864 ft | 503 kts | 346° |
| 2026-05-08 04:44 | 20.43313 | -8.53253 | 39864 ft | 503 kts | 346° |
| 2026-05-08 04:44 | 20.50307 | -8.53810 | 39865 ft | 503 kts | 346° |
| 2026-05-08 04:45 | 20.57280 | -8.54367 | 39867 ft | 503 kts | 346° |
| 2026-05-08 04:45 | 20.64264 | -8.54925 | 39868 ft | 503 kts | 346° |
| 2026-05-08 04:46 | 20.71261 | -8.55487 | 39867 ft | 504 kts | 346° |
| 2026-05-08 04:46 | 20.78264 | -8.56048 | 39867 ft | 504 kts | 346° |
| 2026-05-08 04:47 | 20.85251 | -8.56609 | 39867 ft | 504 kts | 346° |
| 2026-05-08 04:47 | 20.92254 | -8.57171 | 39867 ft | 504 kts | 346° |
| 2026-05-08 04:48 | 20.99275 | -8.57735 | 39867 ft | 504 kts | 346° |
| 2026-05-08 04:48 | 21.06265 | -8.58297 | 39868 ft | 504 kts | 346° |
| 2026-05-08 04:49 | 21.13275 | -8.58862 | 39867 ft | 504 kts | 346° |
| 2026-05-08 04:49 | 21.20272 | -8.59425 | 39867 ft | 504 kts | 346° |
| 2026-05-08 04:50 | 21.27229 | -8.59987 | 39870 ft | 504 kts | 346° |
| 2026-05-08 04:50 | 21.34269 | -8.60555 | 39870 ft | 504 kts | 346° |
| 2026-05-08 04:51 | 21.41261 | -8.61121 | 39869 ft | 504 kts | 346° |
| 2026-05-08 04:51 | 21.48223 | -8.61684 | 39870 ft | 504 kts | 346° |
| 2026-05-08 04:52 | 21.55222 | -8.62251 | 39873 ft | 504 kts | 346° |
| 2026-05-08 04:52 | 21.62217 | -8.62818 | 39864 ft | 503 kts | 346° |
| 2026-05-08 04:53 | 21.69186 | -8.63382 | 39869 ft | 502 kts | 346° |
| 2026-05-08 04:53 | 21.76160 | -8.63949 | 39887 ft | 502 kts | 346° |
| 2026-05-08 04:54 | 21.83136 | -8.64517 | 39884 ft | 502 kts | 346° |
| 2026-05-08 04:54 | 21.90096 | -8.65084 | 39888 ft | 502 kts | 346° |
| 2026-05-08 04:55 | 21.97069 | -8.65651 | 39880 ft | 502 kts | 346° |
| 2026-05-08 04:55 | 22.04038 | -8.66220 | 39882 ft | 502 kts | 346° |
| 2026-05-08 04:56 | 22.11017 | -8.66789 | 39876 ft | 502 kts | 346° |
| 2026-05-08 04:56 | 22.17984 | -8.67359 | 39876 ft | 502 kts | 346° |
| 2026-05-08 04:57 | 22.24943 | -8.67929 | 39890 ft | 502 kts | 346° |
| 2026-05-08 04:57 | 22.31930 | -8.68500 | 39878 ft | 502 kts | 346° |
| 2026-05-08 04:58 | 22.37724 | -8.68974 | 39875 ft | 502 kts | 346° |
| 2026-05-08 04:58 | 22.44717 | -8.69548 | 39876 ft | 503 kts | 346° |
| 2026-05-08 04:59 | 22.51696 | -8.70121 | 39878 ft | 503 kts | 346° |
| 2026-05-08 04:59 | 22.58679 | -8.70695 | 39869 ft | 502 kts | 346° |
| 2026-05-08 05:00 | 22.65605 | -8.71265 | 39878 ft | 502 kts | 346° |
| 2026-05-08 05:00 | 22.72578 | -8.71839 | 39890 ft | 502 kts | 346° |
| 2026-05-08 05:01 | 22.79567 | -8.72415 | 39878 ft | 502 kts | 346° |
| 2026-05-08 05:01 | 22.86527 | -8.72989 | 39879 ft | 502 kts | 346° |
| 2026-05-08 05:02 | 22.93475 | -8.73563 | 39879 ft | 500 kts | 347° |
| 2026-05-08 05:02 | 23.00367 | -8.74132 | 39880 ft | 499 kts | 347° |
| 2026-05-08 05:03 | 23.07297 | -8.74707 | 39882 ft | 499 kts | 347° |
| 2026-05-08 05:03 | 23.14223 | -8.75281 | 39884 ft | 499 kts | 347° |
| 2026-05-08 05:04 | 23.21150 | -8.75857 | 39892 ft | 498 kts | 348° |
| 2026-05-08 05:04 | 23.28044 | -8.76427 | 39886 ft | 496 kts | 348° |
| 2026-05-08 05:05 | 23.34929 | -8.76999 | 39887 ft | 496 kts | 348° |
| 2026-05-08 05:05 | 23.41816 | -8.77572 | 39886 ft | 496 kts | 348° |
| 2026-05-08 05:06 | 23.48687 | -8.78145 | 39884 ft | 496 kts | 348° |
| 2026-05-08 05:06 | 23.55580 | -8.78719 | 39884 ft | 494 kts | 348° |
| 2026-05-08 05:07 | 23.62437 | -8.79291 | 39889 ft | 493 kts | 348° |
| 2026-05-08 05:07 | 23.69297 | -8.79864 | 39889 ft | 493 kts | 348° |
| 2026-05-08 05:08 | 23.76144 | -8.80438 | 39892 ft | 493 kts | 348° |
| 2026-05-08 05:08 | 23.82994 | -8.81012 | 39914 ft | 494 kts | 348° |
| 2026-05-08 05:09 | 23.89838 | -8.81585 | 39893 ft | 493 kts | 348° |
| 2026-05-08 05:09 | 23.96681 | -8.82159 | 39892 ft | 493 kts | 348° |
| 2026-05-08 05:10 | 24.06930 | -8.83020 | 39894 ft | 493 kts | 348° |
| 2026-05-08 05:11 | 24.13777 | -8.83596 | 39918 ft | 493 kts | 348° |
| 2026-05-08 05:11 | 24.20625 | -8.84173 | 39899 ft | 493 kts | 348° |
| 2026-05-08 05:12 | 24.27475 | -8.84751 | 39897 ft | 494 kts | 348° |
| 2026-05-08 05:12 | 24.34332 | -8.85329 | 39899 ft | 494 kts | 348° |
| 2026-05-08 05:13 | 24.41184 | -8.85907 | 39901 ft | 494 kts | 348° |
| 2026-05-08 05:13 | 24.48032 | -8.86486 | 39904 ft | 494 kts | 348° |
| 2026-05-08 05:14 | 24.54893 | -8.87066 | 39903 ft | 494 kts | 348° |
| 2026-05-08 05:14 | 24.61716 | -8.87645 | 39903 ft | 494 kts | 348° |
| 2026-05-08 05:15 | 24.68611 | -8.88229 | 39905 ft | 494 kts | 348° |
| 2026-05-08 05:15 | 24.75459 | -8.88811 | 39920 ft | 494 kts | 348° |
| 2026-05-08 05:16 | 24.82313 | -8.89393 | 39900 ft | 494 kts | 348° |
| 2026-05-08 05:16 | 24.89164 | -8.89976 | 39904 ft | 494 kts | 348° |
| 2026-05-08 05:17 | 24.96020 | -8.90560 | 39903 ft | 494 kts | 348° |
| 2026-05-08 05:17 | 25.02875 | -8.91145 | 39904 ft | 494 kts | 348° |
| 2026-05-08 05:18 | 25.09734 | -8.91730 | 39913 ft | 494 kts | 348° |
| 2026-05-08 05:18 | 25.16559 | -8.92313 | 39911 ft | 494 kts | 348° |
| 2026-05-08 05:19 | 25.23453 | -8.92903 | 39909 ft | 494 kts | 348° |
| 2026-05-08 05:19 | 25.30315 | -8.93491 | 39914 ft | 494 kts | 348° |
| 2026-05-08 05:20 | 25.37175 | -8.94079 | 39938 ft | 494 kts | 348° |
| 2026-05-08 05:20 | 25.44045 | -8.94669 | 39914 ft | 495 kts | 348° |
| 2026-05-08 05:21 | 25.50909 | -8.95259 | 39919 ft | 495 kts | 348° |
| 2026-05-08 05:21 | 25.57781 | -8.95851 | 39919 ft | 495 kts | 348° |
| 2026-05-08 05:22 | 25.64650 | -8.96442 | 39922 ft | 495 kts | 348° |
| 2026-05-08 05:22 | 25.71523 | -8.97035 | 39925 ft | 495 kts | 348° |
| 2026-05-08 05:23 | 25.78400 | -8.97629 | 39924 ft | 495 kts | 348° |
| 2026-05-08 05:23 | 25.85285 | -8.98224 | 39925 ft | 496 kts | 348° |
| 2026-05-08 05:24 | 25.92116 | -8.98815 | 39925 ft | 496 kts | 348° |
| 2026-05-08 05:24 | 25.99000 | -8.99412 | 39953 ft | 496 kts | 348° |
| 2026-05-08 05:25 | 26.05886 | -9.00009 | 39924 ft | 495 kts | 348° |
| 2026-05-08 05:25 | 26.12758 | -9.00606 | 39930 ft | 495 kts | 348° |
| 2026-05-08 05:26 | 26.19639 | -9.01205 | 39929 ft | 495 kts | 348° |
| 2026-05-08 05:26 | 26.26505 | -9.01803 | 39930 ft | 495 kts | 348° |
| 2026-05-08 05:27 | 26.33387 | -9.02402 | 39935 ft | 495 kts | 348° |
| 2026-05-08 05:27 | 26.40249 | -9.03001 | 39933 ft | 495 kts | 348° |
| 2026-05-08 05:28 | 26.47126 | -9.03602 | 39939 ft | 495 kts | 348° |
| 2026-05-08 05:28 | 26.53991 | -9.04203 | 39938 ft | 495 kts | 348° |
| 2026-05-08 05:29 | 26.60867 | -9.04806 | 39951 ft | 495 kts | 347° |
| 2026-05-08 05:29 | 26.67737 | -9.05408 | 39940 ft | 495 kts | 347° |
| 2026-05-08 05:30 | 26.74603 | -9.06010 | 39944 ft | 495 kts | 347° |
| 2026-05-08 05:30 | 26.81460 | -9.06613 | 39942 ft | 495 kts | 347° |
| 2026-05-08 05:31 | 26.88332 | -9.07218 | 39988 ft | 495 kts | 347° |
| 2026-05-08 05:31 | 26.94079 | -9.07724 | 39942 ft | 494 kts | 347° |
| 2026-05-08 05:32 | 27.00934 | -9.08328 | 39955 ft | 494 kts | 347° |
| 2026-05-08 05:32 | 27.07788 | -9.08934 | 39955 ft | 494 kts | 347° |
| 2026-05-08 05:33 | 27.14639 | -9.09540 | 39959 ft | 493 kts | 347° |
| 2026-05-08 05:33 | 27.21486 | -9.10146 | 39970 ft | 494 kts | 347° |
| 2026-05-08 05:34 | 27.28341 | -9.10754 | 39961 ft | 494 kts | 347° |
| 2026-05-08 05:34 | 27.35166 | -9.11360 | 39958 ft | 494 kts | 347° |
| 2026-05-08 05:35 | 27.42070 | -9.11974 | 39954 ft | 494 kts | 347° |
| 2026-05-08 05:35 | 27.48921 | -9.12583 | 39956 ft | 494 kts | 347° |
| 2026-05-08 05:36 | 27.55783 | -9.13194 | 39952 ft | 494 kts | 347° |
| 2026-05-08 05:36 | 27.62599 | -9.13802 | 39956 ft | 494 kts | 347° |
| 2026-05-08 05:37 | 27.69599 | -9.13530 | 39959 ft | 508 kts | 1° |
| 2026-05-08 05:37 | 27.76608 | -9.12223 | 39986 ft | 511 kts | 3° |
| 2026-05-08 05:38 | 27.83620 | -9.10768 | 39952 ft | 513 kts | 3° |
| 2026-05-08 05:38 | 27.90649 | -9.09308 | 39949 ft | 514 kts | 3° |
| 2026-05-08 05:39 | 27.97681 | -9.07864 | 39948 ft | 513 kts | 3° |
| 2026-05-08 05:39 | 28.04711 | -9.06430 | 39941 ft | 513 kts | 3° |
| 2026-05-08 05:40 | 28.11717 | -9.05000 | 39948 ft | 514 kts | 3° |
| 2026-05-08 05:40 | 28.18776 | -9.03559 | 39934 ft | 515 kts | 3° |
| 2026-05-08 05:41 | 28.25785 | -9.02124 | 39929 ft | 515 kts | 3° |
| 2026-05-08 05:41 | 28.32828 | -9.00678 | 39928 ft | 515 kts | 3° |
| 2026-05-08 05:42 | 28.39886 | -8.99228 | 39929 ft | 515 kts | 3° |
| 2026-05-08 05:42 | 28.46943 | -8.97777 | 39921 ft | 515 kts | 3° |
| 2026-05-08 05:43 | 28.53986 | -8.96326 | 39913 ft | 515 kts | 3° |
| 2026-05-08 05:43 | 28.61036 | -8.94873 | 39908 ft | 515 kts | 3° |
| 2026-05-08 05:44 | 28.68086 | -8.93418 | 39904 ft | 515 kts | 3° |
| 2026-05-08 05:44 | 28.75132 | -8.91960 | 39895 ft | 514 kts | 3° |
| 2026-05-08 05:45 | 28.82166 | -8.90504 | 39893 ft | 514 kts | 3° |
| 2026-05-08 05:45 | 28.89214 | -8.89043 | 39890 ft | 514 kts | 3° |
| 2026-05-08 05:46 | 28.96250 | -8.87582 | 39925 ft | 514 kts | 3° |
| 2026-05-08 05:46 | 29.03288 | -8.86118 | 39887 ft | 512 kts | 3° |
| 2026-05-08 05:47 | 29.10298 | -8.84658 | 39892 ft | 511 kts | 3° |
| 2026-05-08 05:47 | 29.17297 | -8.83201 | 39889 ft | 512 kts | 3° |
| 2026-05-08 05:48 | 29.24312 | -8.81737 | 39892 ft | 511 kts | 3° |
| 2026-05-08 05:48 | 29.31299 | -8.80275 | 39908 ft | 510 kts | 3° |
| 2026-05-08 05:49 | 29.38286 | -8.78812 | 39888 ft | 510 kts | 3° |
| 2026-05-08 05:49 | 29.45239 | -8.77354 | 39900 ft | 510 kts | 3° |
| 2026-05-08 05:50 | 29.52207 | -8.75893 | 39901 ft | 510 kts | 3° |
| 2026-05-08 05:50 | 29.59194 | -8.74423 | 39918 ft | 509 kts | 2° |
| 2026-05-08 05:51 | 29.66167 | -8.72955 | 39936 ft | 508 kts | 3° |
| 2026-05-08 05:51 | 29.73108 | -8.71491 | 39927 ft | 509 kts | 3° |
| 2026-05-08 05:52 | 29.80072 | -8.70022 | 39956 ft | 510 kts | 3° |
| 2026-05-08 05:52 | 29.87084 | -8.68540 | 39960 ft | 510 kts | 2° |
| 2026-05-08 05:53 | 29.94012 | -8.67073 | 39968 ft | 509 kts | 2° |
| 2026-05-08 05:53 | 30.00978 | -8.65595 | 39977 ft | 509 kts | 2° |
| 2026-05-08 05:54 | 30.07947 | -8.64115 | 39960 ft | 508 kts | 2° |
| 2026-05-08 05:54 | 30.14917 | -8.62635 | 39981 ft | 509 kts | 2° |
| 2026-05-08 05:55 | 30.21826 | -8.61162 | 39977 ft | 508 kts | 2° |
| 2026-05-08 05:55 | 30.28780 | -8.59678 | 39981 ft | 507 kts | 2° |
| 2026-05-08 05:56 | 30.35703 | -8.58198 | 39982 ft | 507 kts | 2° |
| 2026-05-08 05:56 | 30.42655 | -8.56713 | 39976 ft | 507 kts | 2° |
| 2026-05-08 05:57 | 30.49598 | -8.55226 | 39975 ft | 507 kts | 2° |
| 2026-05-08 05:57 | 30.56538 | -8.53738 | 39975 ft | 507 kts | 2° |
| 2026-05-08 05:58 | 30.63477 | -8.52248 | 39981 ft | 507 kts | 2° |
| 2026-05-08 05:58 | 30.70418 | -8.50755 | 39981 ft | 507 kts | 1° |
| 2026-05-08 05:59 | 30.77369 | -8.49257 | 39966 ft | 507 kts | 1° |
| 2026-05-08 05:59 | 30.84322 | -8.47755 | 39960 ft | 508 kts | 1° |
| 2026-05-08 06:00 | 30.91244 | -8.46263 | 39949 ft | 507 kts | 1° |
| 2026-05-08 06:00 | 30.98195 | -8.44760 | 39982 ft | 508 kts | 1° |
| 2026-05-08 06:01 | 31.05143 | -8.43252 | 39948 ft | 507 kts | 1° |
| 2026-05-08 06:01 | 31.12076 | -8.41748 | 39947 ft | 507 kts | 1° |
| 2026-05-08 06:02 | 31.19028 | -8.40238 | 39937 ft | 507 kts | 1° |
| 2026-05-08 06:02 | 31.25945 | -8.38731 | 39966 ft | 508 kts | 1° |
| 2026-05-08 06:03 | 31.32867 | -8.37221 | 39941 ft | 507 kts | 1° |
| 2026-05-08 06:03 | 31.38639 | -8.35962 | 39949 ft | 508 kts | 1° |
| 2026-05-08 06:04 | 31.45565 | -8.34448 | 39946 ft | 508 kts | 1° |
| 2026-05-08 06:04 | 31.53561 | -8.32698 | 39968 ft | 508 kts | 1° |
| 2026-05-08 06:05 | 31.59350 | -8.31430 | 39943 ft | 510 kts | 1° |
| 2026-05-08 06:05 | 31.66329 | -8.29898 | 39947 ft | 510 kts | 1° |
| 2026-05-08 06:06 | 31.73278 | -8.28369 | 39949 ft | 510 kts | 1° |
| 2026-05-08 06:06 | 31.80273 | -8.26828 | 39949 ft | 510 kts | 1° |
| 2026-05-08 06:07 | 31.87248 | -8.25291 | 39956 ft | 513 kts | 1° |
| 2026-05-08 06:07 | 31.94242 | -8.23748 | 39951 ft | 514 kts | 1° |
| 2026-05-08 06:08 | 32.01282 | -8.22189 | 39950 ft | 514 kts | 1° |
| 2026-05-08 06:08 | 32.08260 | -8.20640 | 39995 ft | 514 kts | 1° |
| 2026-05-08 06:09 | 32.15298 | -8.19108 | 39959 ft | 514 kts | 359° |
| 2026-05-08 06:09 | 32.22368 | -8.17955 | 39960 ft | 512 kts | 357° |
| 2026-05-08 06:10 | 32.29442 | -8.16912 | 39966 ft | 512 kts | 358° |
| 2026-05-08 06:10 | 32.36500 | -8.15812 | 39992 ft | 513 kts | 358° |
| 2026-05-08 06:11 | 32.43583 | -8.14668 | 39955 ft | 515 kts | 358° |
| 2026-05-08 06:11 | 32.50694 | -8.13505 | 39946 ft | 515 kts | 358° |
| 2026-05-08 06:12 | 32.57808 | -8.12339 | 39953 ft | 516 kts | 358° |
| 2026-05-08 06:12 | 32.64924 | -8.11175 | 39974 ft | 516 kts | 358° |
| 2026-05-08 06:13 | 32.72032 | -8.10013 | 39951 ft | 518 kts | 358° |
| 2026-05-08 06:13 | 32.79184 | -8.08839 | 39951 ft | 518 kts | 358° |
| 2026-05-08 06:14 | 32.86318 | -8.07663 | 39949 ft | 518 kts | 358° |
| 2026-05-08 06:14 | 32.93446 | -8.05949 | 39959 ft | 534 kts | 11° |
| 2026-05-08 06:15 | 33.00267 | -8.02092 | 39950 ft | 547 kts | 21° |
| 2026-05-08 06:15 | 33.06926 | -7.97712 | 39952 ft | 549 kts | 22° |
| 2026-05-08 06:16 | 33.13568 | -7.93271 | 39949 ft | 549 kts | 22° |
| 2026-05-08 06:16 | 33.19971 | -7.89021 | 39946 ft | 548 kts | 22° |
| 2026-05-08 06:17 | 33.26927 | -7.84424 | 39941 ft | 548 kts | 22° |
| 2026-05-08 06:17 | 33.31456 | -7.81433 | 39941 ft | 548 kts | 22° |
| 2026-05-08 06:18 | 33.36187 | -7.78303 | 39942 ft | 548 kts | 22° |
| 2026-05-08 06:18 | 33.40738 | -7.75287 | 39940 ft | 548 kts | 22° |
| 2026-05-08 06:19 | 33.45265 | -7.72285 | 39984 ft | 548 kts | 22° |
| 2026-05-08 06:19 | 33.49733 | -7.69317 | 39940 ft | 549 kts | 22° |
| 2026-05-08 06:20 | 33.54247 | -7.66331 | 39936 ft | 549 kts | 21° |
| 2026-05-08 06:20 | 33.58909 | -7.63451 | 39939 ft | 547 kts | 19° |
| 2026-05-08 06:21 | 33.63546 | -7.60702 | 39940 ft | 547 kts | 19° |
| 2026-05-08 06:21 | 33.68232 | -7.57923 | 39937 ft | 547 kts | 19° |
| 2026-05-08 06:22 | 33.72848 | -7.55154 | 39968 ft | 548 kts | 20° |
| 2026-05-08 06:22 | 33.77718 | -7.52205 | 39945 ft | 549 kts | 20° |
| 2026-05-08 06:23 | 33.82461 | -7.49315 | 39939 ft | 550 kts | 20° |
| 2026-05-08 06:23 | 33.87210 | -7.46416 | 39940 ft | 550 kts | 20° |
| 2026-05-08 06:24 | 33.92008 | -7.43483 | 39949 ft | 550 kts | 20° |
| 2026-05-08 06:24 | 33.96678 | -7.40626 | 39947 ft | 550 kts | 20° |
| 2026-05-08 06:25 | 34.01418 | -7.37724 | 39961 ft | 550 kts | 20° |
| 2026-05-08 06:25 | 34.05952 | -7.34946 | 39957 ft | 550 kts | 20° |
| 2026-05-08 06:26 | 34.10547 | -7.32126 | 39955 ft | 550 kts | 20° |
| 2026-05-08 06:26 | 34.15259 | -7.29231 | 39955 ft | 550 kts | 20° |
| 2026-05-08 06:27 | 34.19952 | -7.26343 | 39958 ft | 550 kts | 20° |
| 2026-05-08 06:27 | 34.24713 | -7.23408 | 39957 ft | 550 kts | 20° |
| 2026-05-08 06:28 | 34.29423 | -7.20502 | 39965 ft | 550 kts | 21° |
| 2026-05-08 06:28 | 34.33939 | -7.17712 | 39957 ft | 551 kts | 21° |
| 2026-05-08 06:29 | 34.38304 | -7.15012 | 39957 ft | 551 kts | 21° |
| 2026-05-08 06:29 | 34.42766 | -7.12248 | 39958 ft | 551 kts | 21° |
| 2026-05-08 06:30 | 34.47276 | -7.09451 | 39958 ft | 551 kts | 21° |
| 2026-05-08 06:30 | 34.52022 | -7.06505 | 39958 ft | 551 kts | 21° |
| 2026-05-08 06:31 | 34.56783 | -7.03547 | 39960 ft | 551 kts | 21° |
| 2026-05-08 06:31 | 34.61321 | -7.00724 | 39954 ft | 551 kts | 21° |
| 2026-05-08 06:32 | 34.66173 | -6.97743 | 39949 ft | 551 kts | 21° |
| 2026-05-08 06:32 | 34.70777 | -6.94930 | 39950 ft | 551 kts | 20° |
| 2026-05-08 06:33 | 34.75559 | -6.92006 | 39950 ft | 551 kts | 21° |
| 2026-05-08 06:33 | 34.80366 | -6.89058 | 39984 ft | 551 kts | 21° |
| 2026-05-08 06:34 | 34.85108 | -6.86143 | 39945 ft | 550 kts | 21° |
| 2026-05-08 06:34 | 34.89883 | -6.83200 | 39941 ft | 550 kts | 21° |
| 2026-05-08 06:35 | 34.94641 | -6.80266 | 39939 ft | 551 kts | 21° |
| 2026-05-08 06:35 | 34.99260 | -6.77412 | 39947 ft | 551 kts | 21° |
| 2026-05-08 06:36 | 35.03939 | -6.74519 | 39944 ft | 551 kts | 21° |
| 2026-05-08 06:36 | 35.08766 | -6.71530 | 39953 ft | 551 kts | 21° |
| 2026-05-08 06:37 | 35.12761 | -6.69053 | 39940 ft | 551 kts | 21° |
| 2026-05-08 06:37 | 35.17308 | -6.66230 | 39943 ft | 551 kts | 21° |
| 2026-05-08 06:38 | 35.22060 | -6.63277 | 39945 ft | 551 kts | 21° |
| 2026-05-08 06:38 | 35.26882 | -6.60277 | 39942 ft | 551 kts | 21° |
| 2026-05-08 06:39 | 35.31567 | -6.57357 | 39945 ft | 551 kts | 21° |
| 2026-05-08 06:39 | 35.36194 | -6.54471 | 39948 ft | 551 kts | 22° |
| 2026-05-08 06:40 | 35.40814 | -6.51584 | 39940 ft | 551 kts | 22° |
| 2026-05-08 06:40 | 35.45618 | -6.48579 | 39938 ft | 551 kts | 22° |
| 2026-05-08 06:41 | 35.50287 | -6.45596 | 39929 ft | 551 kts | 23° |
| 2026-05-08 06:41 | 35.55090 | -6.42441 | 39940 ft | 552 kts | 23° |
| 2026-05-08 06:42 | 35.59707 | -6.39393 | 39961 ft | 552 kts | 24° |
| 2026-05-08 06:42 | 35.64307 | -6.36366 | 39938 ft | 552 kts | 24° |
| 2026-05-08 06:43 | 35.69054 | -6.33250 | 39936 ft | 552 kts | 23° |
| 2026-05-08 06:43 | 35.73667 | -6.30226 | 39936 ft | 552 kts | 23° |
| 2026-05-08 06:44 | 35.78352 | -6.27161 | 39938 ft | 551 kts | 23° |
| 2026-05-08 06:44 | 35.82992 | -6.24138 | 39942 ft | 551 kts | 23° |
| 2026-05-08 06:45 | 35.87669 | -6.21102 | 39943 ft | 551 kts | 23° |
| 2026-05-08 06:45 | 35.92412 | -6.18047 | 39955 ft | 551 kts | 23° |
| 2026-05-08 06:46 | 35.97072 | -6.15038 | 39955 ft | 551 kts | 23° |
| 2026-05-08 06:46 | 36.01833 | -6.11954 | 39955 ft | 551 kts | 23° |
| 2026-05-08 06:47 | 36.06494 | -6.08929 | 39955 ft | 551 kts | 23° |
| 2026-05-08 06:47 | 36.11115 | -6.05924 | 39968 ft | 552 kts | 23° |
| 2026-05-08 06:48 | 36.15750 | -6.02904 | 39955 ft | 551 kts | 24° |
| 2026-05-08 06:48 | 36.20384 | -5.99891 | 39950 ft | 550 kts | 23° |
| 2026-05-08 06:49 | 36.25141 | -5.97599 | 39958 ft | 540 kts | 8° |
| 2026-05-08 06:49 | 36.30164 | -5.96421 | 39953 ft | 533 kts | 2° |
| 2026-05-08 06:50 | 36.35068 | -5.95515 | 39952 ft | 533 kts | 1° |
| 2026-05-08 06:50 | 36.40168 | -5.94632 | 39954 ft | 533 kts | 1° |
| 2026-05-08 06:51 | 36.45366 | -5.93736 | 39955 ft | 533 kts | 1° |
| 2026-05-08 06:51 | 36.50453 | -5.92846 | 39949 ft | 533 kts | 2° |
| 2026-05-08 06:52 | 36.55391 | -5.91972 | 39951 ft | 533 kts | 2° |
| 2026-05-08 06:52 | 36.60153 | -5.91123 | 39967 ft | 533 kts | 2° |
| 2026-05-08 06:53 | 36.65073 | -5.90244 | 39944 ft | 533 kts | 2° |
| 2026-05-08 06:53 | 36.70241 | -5.89320 | 39939 ft | 533 kts | 2° |
| 2026-05-08 06:54 | 36.75450 | -5.88387 | 39940 ft | 533 kts | 2° |
| 2026-05-08 06:54 | 36.80567 | -5.87470 | 39941 ft | 534 kts | 2° |
| 2026-05-08 06:55 | 36.85707 | -5.86548 | 39950 ft | 533 kts | 2° |
| 2026-05-08 06:55 | 36.90755 | -5.85641 | 39947 ft | 534 kts | 2° |
| 2026-05-08 06:56 | 36.95827 | -5.84729 | 39941 ft | 534 kts | 2° |
| 2026-05-08 06:56 | 37.01051 | -5.83787 | 39938 ft | 534 kts | 2° |
| 2026-05-08 06:57 | 37.06150 | -5.82867 | 39941 ft | 534 kts | 2° |
| 2026-05-08 06:57 | 37.11402 | -5.81918 | 39951 ft | 534 kts | 3° |
| 2026-05-08 06:58 | 37.16632 | -5.80971 | 39928 ft | 533 kts | 3° |
| 2026-05-08 06:58 | 37.21739 | -5.80045 | 39926 ft | 532 kts | 3° |
| 2026-05-08 06:59 | 37.26866 | -5.79115 | 39929 ft | 532 kts | 3° |
| 2026-05-08 06:59 | 37.32014 | -5.78181 | 39930 ft | 532 kts | 3° |
| 2026-05-08 07:00 | 37.36940 | -5.77285 | 39939 ft | 531 kts | 3° |
| 2026-05-08 07:00 | 37.42139 | -5.76048 | 39940 ft | 536 kts | 12° |
| 2026-05-08 07:01 | 37.47054 | -5.73643 | 39935 ft | 540 kts | 21° |
| 2026-05-08 07:01 | 37.51873 | -5.70823 | 39927 ft | 541 kts | 22° |
| 2026-05-08 07:02 | 37.56493 | -5.68007 | 39947 ft | 544 kts | 22° |
| 2026-05-08 07:02 | 37.61137 | -5.65156 | 39952 ft | 545 kts | 22° |
| 2026-05-08 07:03 | 37.65814 | -5.62290 | 39944 ft | 546 kts | 22° |
| 2026-05-08 07:03 | 37.70635 | -5.59348 | 39943 ft | 546 kts | 22° |
| 2026-05-08 07:04 | 37.75430 | -5.56427 | 39941 ft | 546 kts | 22° |
| 2026-05-08 07:04 | 37.80138 | -5.53557 | 39948 ft | 546 kts | 22° |
| 2026-05-08 07:05 | 37.84919 | -5.50641 | 39958 ft | 545 kts | 22° |
| 2026-05-08 07:05 | 37.89719 | -5.47706 | 39946 ft | 543 kts | 22° |
| 2026-05-08 07:06 | 37.94356 | -5.44868 | 39945 ft | 542 kts | 22° |
| 2026-05-08 07:06 | 37.99089 | -5.41967 | 39944 ft | 541 kts | 22° |
| 2026-05-08 07:07 | 38.03742 | -5.39111 | 39944 ft | 541 kts | 22° |
| 2026-05-08 07:07 | 38.08353 | -5.36277 | 39952 ft | 541 kts | 23° |
| 2026-05-08 07:08 | 38.12925 | -5.33461 | 39949 ft | 539 kts | 23° |
| 2026-05-08 07:08 | 38.17653 | -5.30545 | 39933 ft | 537 kts | 22° |
| 2026-05-08 07:09 | 38.22308 | -5.27671 | 39939 ft | 538 kts | 22° |
| 2026-05-08 07:09 | 38.27017 | -5.24760 | 39938 ft | 538 kts | 22° |
| 2026-05-08 07:10 | 38.30931 | -5.22336 | 39938 ft | 538 kts | 22° |